CFG2HK EDDH-EDDF
Flight info
| Callsign | CFG2HK |
|---|---|
| Flight time | 0h 51m |
| Altitude | 34000 |
| Route | AMLUH2G AMLUH M852 DENIX DCT RIMET T157 KERAX KERAX5A |
| Aircraft | A320/M-SDE3FGHIJ1LORVWXYZ/S |
Departure
| Time | 2026-05-06 17:05 |
|---|---|
| Airport | Hamburg Helmut Schmidt Airport (EDDH) |
Arrival
| Time | 2026-05-06 17:56 |
|---|---|
| Airport | Frankfurt Main Airport (EDDF) |
| Time | Latitude | Longitude | Altitude | Speed | Heading |
|---|---|---|---|---|---|
| 2026-05-06 16:02 | 53.63292 | 10.00363 | 49 ft | 0 kts | 87° |
| 2026-05-06 16:04 | 53.63245 | 10.00358 | 49 ft | 0 kts | 86° |
| 2026-05-06 16:49 | 53.63244 | 10.00320 | 48 ft | 4 kts | 86° |
| 2026-05-06 16:50 | 53.63243 | 10.00284 | 48 ft | 4 kts | 99° |
| 2026-05-06 16:50 | 53.63252 | 10.00248 | 48 ft | 4 kts | 151° |
| 2026-05-06 16:50 | 53.63263 | 10.00241 | 47 ft | 0 kts | 176° |
| 2026-05-06 16:54 | 53.63262 | 10.00241 | 48 ft | 1 kts | 176° |
| 2026-05-06 16:54 | 53.63247 | 10.00189 | 48 ft | 10 kts | 255° |
| 2026-05-06 16:54 | 53.63195 | 10.00065 | 48 ft | 14 kts | 230° |
| 2026-05-06 16:55 | 53.63136 | 9.99946 | 48 ft | 13 kts | 230° |
| 2026-05-06 16:55 | 53.63069 | 9.99895 | 45 ft | 11 kts | 163° |
| 2026-05-06 16:55 | 53.63006 | 9.99949 | 48 ft | 9 kts | 153° |
| 2026-05-06 16:55 | 53.62950 | 9.99996 | 48 ft | 8 kts | 154° |
| 2026-05-06 16:56 | 53.62911 | 9.99960 | 48 ft | 7 kts | 241° |
| 2026-05-06 16:56 | 53.62894 | 9.99907 | 48 ft | 0 kts | 244° |
| 2026-05-06 16:58 | 53.62894 | 9.99906 | 48 ft | 0 kts | 244° |
| 2026-05-06 16:58 | 53.62875 | 9.99843 | 44 ft | 9 kts | 244° |
| 2026-05-06 16:58 | 53.62857 | 9.99757 | 45 ft | 5 kts | 285° |
| 2026-05-06 16:59 | 53.62874 | 9.99739 | 43 ft | 0 kts | 333° |
| 2026-05-06 17:04 | 53.62877 | 9.99737 | 45 ft | 4 kts | 333° |
| 2026-05-06 17:04 | 53.63080 | 9.99563 | 46 ft | 71 kts | 333° |
| 2026-05-06 17:04 | 53.63718 | 9.99010 | 48 ft | 134 kts | 333° |
| 2026-05-06 17:05 | 53.64666 | 9.98202 | 353 ft | 156 kts | 337° |
| 2026-05-06 17:05 | 53.65636 | 9.97385 | 1111 ft | 155 kts | 339° |
| 2026-05-06 17:05 | 53.66643 | 9.96549 | 1630 ft | 172 kts | 339° |
| 2026-05-06 17:05 | 53.67785 | 9.95595 | 2018 ft | 194 kts | 339° |
| 2026-05-06 17:06 | 53.69100 | 9.94796 | 2518 ft | 205 kts | 357° |
| 2026-05-06 17:06 | 53.70532 | 9.94723 | 3359 ft | 207 kts | 4° |
| 2026-05-06 17:06 | 53.71982 | 9.94842 | 4177 ft | 210 kts | 18° |
| 2026-05-06 17:06 | 53.73173 | 9.96166 | 4963 ft | 209 kts | 54° |
| 2026-05-06 17:07 | 53.73716 | 9.98455 | 5720 ft | 215 kts | 75° |
| 2026-05-06 17:07 | 53.74047 | 10.00938 | 6525 ft | 220 kts | 80° |
| 2026-05-06 17:07 | 53.74001 | 10.03563 | 7246 ft | 229 kts | 100° |
| 2026-05-06 17:07 | 53.73386 | 10.06196 | 7677 ft | 256 kts | 118° |
| 2026-05-06 17:08 | 53.72443 | 10.08907 | 8151 ft | 277 kts | 117° |
| 2026-05-06 17:08 | 53.71399 | 10.11635 | 8964 ft | 285 kts | 128° |
| 2026-05-06 17:08 | 53.69888 | 10.13882 | 9751 ft | 296 kts | 149° |
| 2026-05-06 17:08 | 53.67933 | 10.15262 | 10209 ft | 317 kts | 159° |
| 2026-05-06 17:09 | 53.65771 | 10.16534 | 10534 ft | 338 kts | 161° |
| 2026-05-06 17:09 | 53.63518 | 10.17786 | 11269 ft | 344 kts | 161° |
| 2026-05-06 17:09 | 53.61238 | 10.19021 | 12131 ft | 345 kts | 162° |
| 2026-05-06 17:09 | 53.58945 | 10.20261 | 12991 ft | 346 kts | 162° |
| 2026-05-06 17:10 | 53.56645 | 10.21518 | 13827 ft | 348 kts | 162° |
| 2026-05-06 17:10 | 53.54343 | 10.22786 | 14519 ft | 351 kts | 162° |
| 2026-05-06 17:10 | 53.52010 | 10.24078 | 15230 ft | 354 kts | 163° |
| 2026-05-06 17:10 | 53.49661 | 10.25385 | 15887 ft | 358 kts | 163° |
| 2026-05-06 17:11 | 53.47284 | 10.26711 | 16560 ft | 361 kts | 163° |
| 2026-05-06 17:11 | 53.44890 | 10.28044 | 17216 ft | 365 kts | 163° |
| 2026-05-06 17:11 | 53.43287 | 10.28935 | 17671 ft | 367 kts | 163° |
| 2026-05-06 17:11 | 53.40032 | 10.30744 | 18511 ft | 371 kts | 163° |
| 2026-05-06 17:12 | 53.38395 | 10.31654 | 18907 ft | 374 kts | 163° |
| 2026-05-06 17:12 | 53.35915 | 10.33029 | 19528 ft | 377 kts | 164° |
| 2026-05-06 17:12 | 53.33410 | 10.34412 | 20156 ft | 380 kts | 163° |
| 2026-05-06 17:12 | 53.30888 | 10.35799 | 20743 ft | 384 kts | 163° |
| 2026-05-06 17:13 | 53.28324 | 10.37208 | 21275 ft | 389 kts | 165° |
| 2026-05-06 17:13 | 53.25725 | 10.38639 | 21713 ft | 396 kts | 165° |
| 2026-05-06 17:13 | 53.23091 | 10.40088 | 22236 ft | 400 kts | 165° |
| 2026-05-06 17:13 | 53.20458 | 10.41534 | 22602 ft | 395 kts | 165° |
| 2026-05-06 17:14 | 53.17835 | 10.42977 | 22791 ft | 399 kts | 165° |
| 2026-05-06 17:14 | 53.15207 | 10.44374 | 23194 ft | 403 kts | 168° |
| 2026-05-06 17:14 | 53.12414 | 10.45214 | 23573 ft | 403 kts | 178° |
| 2026-05-06 17:14 | 53.09650 | 10.45255 | 23958 ft | 400 kts | 187° |
| 2026-05-06 17:15 | 53.06896 | 10.44883 | 24087 ft | 396 kts | 188° |
| 2026-05-06 17:15 | 53.04211 | 10.44488 | 24202 ft | 395 kts | 188° |
| 2026-05-06 17:15 | 53.01438 | 10.44094 | 24351 ft | 389 kts | 188° |
| 2026-05-06 17:15 | 52.98767 | 10.43710 | 24467 ft | 382 kts | 188° |
| 2026-05-06 17:16 | 52.96093 | 10.43331 | 24592 ft | 392 kts | 188° |
| 2026-05-06 17:16 | 52.93333 | 10.42959 | 24771 ft | 402 kts | 188° |
| 2026-05-06 17:16 | 52.90527 | 10.42596 | 25122 ft | 407 kts | 188° |
| 2026-05-06 17:16 | 52.87699 | 10.42231 | 25525 ft | 409 kts | 188° |
| 2026-05-06 17:17 | 52.84850 | 10.41858 | 25937 ft | 411 kts | 188° |
| 2026-05-06 17:17 | 52.81988 | 10.41476 | 26348 ft | 414 kts | 188° |
| 2026-05-06 17:17 | 52.79105 | 10.41085 | 26750 ft | 416 kts | 188° |
| 2026-05-06 17:17 | 52.76226 | 10.40694 | 27175 ft | 417 kts | 189° |
| 2026-05-06 17:18 | 52.73333 | 10.40299 | 27577 ft | 419 kts | 189° |
| 2026-05-06 17:18 | 52.70421 | 10.39901 | 27972 ft | 421 kts | 189° |
| 2026-05-06 17:18 | 52.67494 | 10.39503 | 28344 ft | 422 kts | 189° |
| 2026-05-06 17:18 | 52.64555 | 10.39104 | 28717 ft | 424 kts | 189° |
| 2026-05-06 17:19 | 52.61605 | 10.38707 | 29069 ft | 426 kts | 189° |
| 2026-05-06 17:19 | 52.58644 | 10.38309 | 29399 ft | 428 kts | 189° |
| 2026-05-06 17:19 | 52.55669 | 10.37908 | 29720 ft | 430 kts | 189° |
| 2026-05-06 17:19 | 52.52724 | 10.37511 | 30044 ft | 430 kts | 189° |
| 2026-05-06 17:20 | 52.49737 | 10.37114 | 30316 ft | 431 kts | 189° |
| 2026-05-06 17:20 | 52.46741 | 10.36720 | 30582 ft | 432 kts | 189° |
| 2026-05-06 17:20 | 52.43737 | 10.36319 | 30820 ft | 434 kts | 189° |
| 2026-05-06 17:20 | 52.40726 | 10.35914 | 31056 ft | 435 kts | 189° |
| 2026-05-06 17:21 | 52.37713 | 10.35510 | 31367 ft | 434 kts | 189° |
| 2026-05-06 17:21 | 52.34714 | 10.35111 | 31689 ft | 433 kts | 189° |
| 2026-05-06 17:21 | 52.31710 | 10.34712 | 32024 ft | 432 kts | 189° |
| 2026-05-06 17:21 | 52.28721 | 10.34323 | 32351 ft | 431 kts | 189° |
| 2026-05-06 17:22 | 52.25738 | 10.33934 | 32669 ft | 430 kts | 189° |
| 2026-05-06 17:22 | 52.22760 | 10.33542 | 32986 ft | 429 kts | 189° |
| 2026-05-06 17:22 | 52.19785 | 10.33150 | 33285 ft | 428 kts | 189° |
| 2026-05-06 17:22 | 52.16818 | 10.32758 | 33619 ft | 428 kts | 189° |
| 2026-05-06 17:23 | 52.13849 | 10.32360 | 33753 ft | 426 kts | 189° |
| 2026-05-06 17:23 | 52.07985 | 10.31582 | 33779 ft | 420 kts | 189° |
| 2026-05-06 17:24 | 52.02202 | 10.30822 | 33823 ft | 420 kts | 189° |
| 2026-05-06 17:24 | 51.96380 | 10.30054 | 33768 ft | 419 kts | 189° |
| 2026-05-06 17:25 | 51.90569 | 10.29291 | 33782 ft | 418 kts | 189° |
| 2026-05-06 17:25 | 51.84785 | 10.28544 | 33780 ft | 416 kts | 189° |
| 2026-05-06 17:26 | 51.79029 | 10.27809 | 33799 ft | 414 kts | 188° |
| 2026-05-06 17:26 | 51.73293 | 10.27068 | 33785 ft | 413 kts | 189° |
| 2026-05-06 17:27 | 51.67567 | 10.26321 | 33787 ft | 414 kts | 188° |
| 2026-05-06 17:27 | 51.61825 | 10.25579 | 33785 ft | 414 kts | 188° |
| 2026-05-06 17:28 | 51.56086 | 10.24847 | 33782 ft | 414 kts | 188° |
| 2026-05-06 17:28 | 51.50351 | 10.24095 | 33777 ft | 413 kts | 188° |
| 2026-05-06 17:29 | 51.44640 | 10.23384 | 33779 ft | 414 kts | 188° |
| 2026-05-06 17:29 | 51.38894 | 10.22651 | 33773 ft | 414 kts | 188° |
| 2026-05-06 17:30 | 51.33144 | 10.21916 | 33783 ft | 414 kts | 187° |
| 2026-05-06 17:30 | 51.30257 | 10.21681 | 33531 ft | 415 kts | 185° |
| 2026-05-06 17:30 | 51.27362 | 10.21586 | 32598 ft | 418 kts | 184° |
| 2026-05-06 17:30 | 51.24439 | 10.21578 | 31648 ft | 422 kts | 183° |
| 2026-05-06 17:31 | 51.21450 | 10.21596 | 30681 ft | 435 kts | 182° |
| 2026-05-06 17:31 | 51.18421 | 10.21328 | 29520 ft | 436 kts | 192° |
| 2026-05-06 17:31 | 51.15532 | 10.20095 | 28231 ft | 437 kts | 205° |
| 2026-05-06 17:31 | 51.12984 | 10.17508 | 26993 ft | 435 kts | 219° |
| 2026-05-06 17:32 | 51.10608 | 10.14540 | 25809 ft | 434 kts | 217° |
| 2026-05-06 17:32 | 51.08133 | 10.11820 | 24897 ft | 431 kts | 213° |
| 2026-05-06 17:32 | 51.05569 | 10.09352 | 24287 ft | 430 kts | 211° |
| 2026-05-06 17:32 | 51.02952 | 10.07055 | 23662 ft | 429 kts | 209° |
| 2026-05-06 17:33 | 51.00327 | 10.04850 | 23028 ft | 426 kts | 208° |
| 2026-05-06 17:33 | 50.97715 | 10.02661 | 22423 ft | 423 kts | 209° |
| 2026-05-06 17:33 | 50.95125 | 10.00456 | 21876 ft | 420 kts | 209° |
| 2026-05-06 17:33 | 50.92581 | 9.98241 | 21359 ft | 417 kts | 210° |
| 2026-05-06 17:34 | 50.90059 | 9.96005 | 20874 ft | 415 kts | 210° |
| 2026-05-06 17:34 | 50.87549 | 9.93757 | 20286 ft | 412 kts | 210° |
| 2026-05-06 17:34 | 50.85066 | 9.91532 | 19763 ft | 409 kts | 210° |
| 2026-05-06 17:34 | 50.82598 | 9.89322 | 19215 ft | 406 kts | 210° |
| 2026-05-06 17:35 | 50.80147 | 9.87139 | 18662 ft | 402 kts | 210° |
| 2026-05-06 17:35 | 50.77710 | 9.84977 | 18109 ft | 399 kts | 210° |
| 2026-05-06 17:35 | 50.75330 | 9.82872 | 17521 ft | 396 kts | 210° |
| 2026-05-06 17:36 | 50.70547 | 9.78665 | 16407 ft | 390 kts | 210° |
| 2026-05-06 17:36 | 50.68184 | 9.76587 | 15867 ft | 387 kts | 210° |
| 2026-05-06 17:36 | 50.65838 | 9.74527 | 15311 ft | 384 kts | 210° |
| 2026-05-06 17:36 | 50.63514 | 9.72488 | 14778 ft | 381 kts | 210° |
| 2026-05-06 17:37 | 50.61205 | 9.70458 | 14230 ft | 378 kts | 210° |
| 2026-05-06 17:37 | 50.58920 | 9.68438 | 13676 ft | 376 kts | 210° |
| 2026-05-06 17:37 | 50.56656 | 9.66415 | 13087 ft | 373 kts | 210° |
| 2026-05-06 17:37 | 50.54416 | 9.64400 | 12526 ft | 369 kts | 210° |
| 2026-05-06 17:38 | 50.52199 | 9.62405 | 11962 ft | 366 kts | 210° |
| 2026-05-06 17:38 | 50.50017 | 9.60370 | 11389 ft | 362 kts | 216° |
| 2026-05-06 17:38 | 50.48182 | 9.57714 | 10913 ft | 358 kts | 231° |
| 2026-05-06 17:38 | 50.46880 | 9.54391 | 10779 ft | 359 kts | 246° |
| 2026-05-06 17:39 | 50.46094 | 9.50663 | 10795 ft | 360 kts | 253° |
| 2026-05-06 17:39 | 50.45379 | 9.46898 | 10809 ft | 361 kts | 252° |
| 2026-05-06 17:39 | 50.44660 | 9.43116 | 10808 ft | 361 kts | 252° |
| 2026-05-06 17:39 | 50.43941 | 9.39340 | 10809 ft | 361 kts | 252° |
| 2026-05-06 17:40 | 50.43224 | 9.35580 | 10805 ft | 361 kts | 252° |
| 2026-05-06 17:40 | 50.42505 | 9.31811 | 10809 ft | 361 kts | 252° |
| 2026-05-06 17:40 | 50.41787 | 9.28031 | 10804 ft | 361 kts | 252° |
| 2026-05-06 17:40 | 50.41065 | 9.24264 | 10856 ft | 362 kts | 252° |
| 2026-05-06 17:41 | 50.40267 | 9.20503 | 10854 ft | 362 kts | 250° |
| 2026-05-06 17:41 | 50.39421 | 9.16846 | 10851 ft | 362 kts | 249° |
| 2026-05-06 17:41 | 50.38534 | 9.13155 | 10855 ft | 362 kts | 249° |
| 2026-05-06 17:41 | 50.37643 | 9.09470 | 10858 ft | 362 kts | 249° |
| 2026-05-06 17:42 | 50.36759 | 9.05782 | 10775 ft | 360 kts | 249° |
| 2026-05-06 17:42 | 50.35907 | 9.02175 | 10530 ft | 346 kts | 249° |
| 2026-05-06 17:42 | 50.35096 | 8.98711 | 10285 ft | 332 kts | 249° |
| 2026-05-06 17:42 | 50.34318 | 8.95381 | 10046 ft | 320 kts | 249° |
| 2026-05-06 17:43 | 50.33567 | 8.92167 | 9797 ft | 306 kts | 249° |
| 2026-05-06 17:43 | 50.32860 | 8.89142 | 9549 ft | 286 kts | 249° |
| 2026-05-06 17:43 | 50.32072 | 8.86341 | 8902 ft | 280 kts | 234° |
| 2026-05-06 17:43 | 50.30698 | 8.84413 | 8689 ft | 273 kts | 208° |
| 2026-05-06 17:44 | 50.28810 | 8.83677 | 8580 ft | 275 kts | 180° |
| 2026-05-06 17:44 | 50.26967 | 8.84441 | 8476 ft | 279 kts | 155° |
| 2026-05-06 17:44 | 50.25199 | 8.85775 | 8370 ft | 280 kts | 156° |
| 2026-05-06 17:44 | 50.23641 | 8.87545 | 8271 ft | 284 kts | 133° |
| 2026-05-06 17:45 | 50.22761 | 8.90342 | 8164 ft | 289 kts | 101° |
| 2026-05-06 17:45 | 50.22917 | 8.93433 | 8030 ft | 292 kts | 73° |
| 2026-05-06 17:45 | 50.23586 | 8.96390 | 7772 ft | 292 kts | 70° |
| 2026-05-06 17:45 | 50.24293 | 8.99360 | 7520 ft | 291 kts | 70° |
| 2026-05-06 17:46 | 50.25004 | 9.02323 | 7257 ft | 290 kts | 70° |
| 2026-05-06 17:46 | 50.25708 | 9.05271 | 7027 ft | 290 kts | 70° |
| 2026-05-06 17:46 | 50.26251 | 9.08278 | 6762 ft | 286 kts | 87° |
| 2026-05-06 17:46 | 50.25980 | 9.11252 | 6523 ft | 272 kts | 115° |
| 2026-05-06 17:47 | 50.24908 | 9.13556 | 6276 ft | 258 kts | 145° |
| 2026-05-06 17:47 | 50.23348 | 9.14711 | 6021 ft | 244 kts | 174° |
| 2026-05-06 17:47 | 50.21726 | 9.14493 | 5762 ft | 231 kts | 205° |
| 2026-05-06 17:47 | 50.20414 | 9.13128 | 5510 ft | 226 kts | 222° |
| 2026-05-06 17:48 | 50.19243 | 9.11493 | 5250 ft | 225 kts | 224° |
| 2026-05-06 17:48 | 50.18101 | 9.09824 | 5075 ft | 225 kts | 227° |
| 2026-05-06 17:48 | 50.17341 | 9.07745 | 5030 ft | 224 kts | 252° |
| 2026-05-06 17:48 | 50.16853 | 9.05422 | 5035 ft | 225 kts | 250° |
| 2026-05-06 17:49 | 50.16327 | 9.03124 | 5033 ft | 225 kts | 249° |
| 2026-05-06 17:49 | 50.15796 | 9.00851 | 5037 ft | 224 kts | 249° |
| 2026-05-06 17:49 | 50.15259 | 8.98559 | 5036 ft | 225 kts | 249° |
| 2026-05-06 17:49 | 50.14723 | 8.96268 | 5037 ft | 225 kts | 249° |
| 2026-05-06 17:50 | 50.14186 | 8.93976 | 5035 ft | 225 kts | 249° |
| 2026-05-06 17:50 | 50.13656 | 8.91714 | 5031 ft | 215 kts | 250° |
| 2026-05-06 17:50 | 50.13163 | 8.89612 | 5029 ft | 199 kts | 249° |
| 2026-05-06 17:50 | 50.12706 | 8.87667 | 5038 ft | 183 kts | 249° |
| 2026-05-06 17:51 | 50.12282 | 8.85864 | 4981 ft | 174 kts | 249° |
| 2026-05-06 17:51 | 50.11869 | 8.84111 | 4778 ft | 171 kts | 250° |
| 2026-05-06 17:51 | 50.11460 | 8.82373 | 4553 ft | 170 kts | 249° |
| 2026-05-06 17:51 | 50.11053 | 8.80649 | 4316 ft | 168 kts | 250° |
| 2026-05-06 17:52 | 50.10657 | 8.78968 | 4067 ft | 167 kts | 250° |
| 2026-05-06 17:52 | 50.10255 | 8.77267 | 3834 ft | 167 kts | 250° |
| 2026-05-06 17:52 | 50.09854 | 8.75569 | 3596 ft | 167 kts | 251° |
| 2026-05-06 17:52 | 50.09451 | 8.73865 | 3354 ft | 167 kts | 251° |
| 2026-05-06 17:53 | 50.09049 | 8.72164 | 3116 ft | 169 kts | 250° |
| 2026-05-06 17:53 | 50.08642 | 8.70446 | 2871 ft | 168 kts | 251° |
| 2026-05-06 17:53 | 50.08235 | 8.68728 | 2629 ft | 169 kts | 252° |
| 2026-05-06 17:53 | 50.07828 | 8.67010 | 2383 ft | 169 kts | 252° |
| 2026-05-06 17:54 | 50.07419 | 8.65292 | 2126 ft | 169 kts | 253° |
| 2026-05-06 17:54 | 50.07015 | 8.63590 | 1885 ft | 161 kts | 252° |
| 2026-05-06 17:54 | 50.06649 | 8.62043 | 1693 ft | 143 kts | 252° |
| 2026-05-06 17:54 | 50.06321 | 8.60650 | 1460 ft | 136 kts | 253° |
| 2026-05-06 17:55 | 50.05997 | 8.59299 | 1257 ft | 129 kts | 253° |
| 2026-05-06 17:55 | 50.05691 | 8.57981 | 1068 ft | 133 kts | 255° |
| 2026-05-06 17:55 | 50.05370 | 8.56636 | 880 ft | 134 kts | 252° |
| 2026-05-06 17:55 | 50.05045 | 8.55276 | 676 ft | 134 kts | 252° |
| 2026-05-06 17:56 | 50.04717 | 8.53928 | 467 ft | 133 kts | 252° |
| 2026-05-06 17:56 | 50.04405 | 8.52622 | 353 ft | 118 kts | 249° |
| 2026-05-06 17:56 | 50.04172 | 8.51654 | 333 ft | 72 kts | 249° |
| 2026-05-06 17:56 | 50.04049 | 8.51172 | 330 ft | 32 kts | 242° |
| 2026-05-06 17:57 | 50.03908 | 8.50918 | 326 ft | 27 kts | 219° |
| 2026-05-06 17:57 | 50.03807 | 8.50837 | 329 ft | 12 kts | 165° |
| 2026-05-06 17:57 | 50.03786 | 8.50946 | 333 ft | 14 kts | 70° |
| 2026-05-06 17:57 | 50.03828 | 8.51123 | 334 ft | 21 kts | 70° |
| 2026-05-06 17:58 | 50.03887 | 8.51368 | 332 ft | 26 kts | 70° |
| 2026-05-06 17:58 | 50.03953 | 8.51644 | 332 ft | 28 kts | 70° |
| 2026-05-06 17:58 | 50.04023 | 8.51937 | 336 ft | 30 kts | 70° |
| 2026-05-06 17:58 | 50.04095 | 8.52236 | 348 ft | 30 kts | 69° |
| 2026-05-06 17:59 | 50.04164 | 8.52526 | 353 ft | 29 kts | 69° |
| 2026-05-06 17:59 | 50.04234 | 8.52818 | 354 ft | 29 kts | 69° |
| 2026-05-06 17:59 | 50.04305 | 8.53115 | 360 ft | 29 kts | 70° |
| 2026-05-06 17:59 | 50.04373 | 8.53395 | 374 ft | 26 kts | 69° |
| 2026-05-06 18:00 | 50.04405 | 8.53661 | 375 ft | 26 kts | 84° |
| 2026-05-06 18:00 | 50.04423 | 8.53942 | 375 ft | 27 kts | 83° |
| 2026-05-06 18:00 | 50.04442 | 8.54228 | 375 ft | 26 kts | 84° |
| 2026-05-06 18:00 | 50.04449 | 8.54495 | 370 ft | 26 kts | 98° |
| 2026-05-06 18:01 | 50.04390 | 8.54682 | 362 ft | 18 kts | 128° |
| 2026-05-06 18:01 | 50.04331 | 8.54757 | 358 ft | 5 kts | 149° |
| 2026-05-06 18:01 | 50.04330 | 8.54758 | 358 ft | 0 kts | 149° |
| 2026-05-06 18:03 | 50.04318 | 8.54768 | 359 ft | 6 kts | 150° |
| 2026-05-06 18:03 | 50.04251 | 8.54808 | 359 ft | 15 kts | 160° |
| 2026-05-06 18:03 | 50.04137 | 8.54870 | 353 ft | 19 kts | 160° |
| 2026-05-06 18:04 | 50.04007 | 8.54945 | 359 ft | 20 kts | 159° |
| 2026-05-06 18:04 | 50.03889 | 8.55017 | 355 ft | 14 kts | 158° |
| 2026-05-06 18:04 | 50.03850 | 8.55120 | 349 ft | 12 kts | 75° |
| 2026-05-06 18:04 | 50.03882 | 8.55254 | 357 ft | 15 kts | 70° |
| 2026-05-06 18:05 | 50.03922 | 8.55420 | 349 ft | 18 kts | 70° |
| 2026-05-06 18:05 | 50.03969 | 8.55618 | 356 ft | 21 kts | 69° |
| 2026-05-06 18:05 | 50.04023 | 8.55849 | 355 ft | 24 kts | 69° |
| 2026-05-06 18:05 | 50.04083 | 8.56100 | 356 ft | 26 kts | 70° |
| 2026-05-06 18:06 | 50.04148 | 8.56370 | 357 ft | 27 kts | 69° |
| 2026-05-06 18:06 | 50.04192 | 8.56555 | 357 ft | 27 kts | 69° |
| 2026-05-06 18:06 | 50.04218 | 8.56660 | 364 ft | 1 kts | 69° |
| 2026-05-06 18:06 | 50.04218 | 8.56662 | 364 ft | 0 kts | 69° |
| 2026-05-06 18:08 | 50.04219 | 8.56664 | 357 ft | 1 kts | 69° |
| 2026-05-06 18:09 | 50.04228 | 8.56702 | 362 ft | 8 kts | 70° |
| 2026-05-06 18:09 | 50.04269 | 8.56798 | 361 ft | 13 kts | 35° |
| 2026-05-06 18:09 | 50.04377 | 8.56838 | 360 ft | 18 kts | 9° |
| 2026-05-06 18:09 | 50.04508 | 8.56875 | 359 ft | 20 kts | 14° |
| 2026-05-06 18:10 | 50.04595 | 8.56908 | 356 ft | 14 kts | 13° |
| 2026-05-06 18:10 | 50.04695 | 8.56965 | 364 ft | 16 kts | 25° |
| 2026-05-06 18:10 | 50.04800 | 8.57040 | 357 ft | 14 kts | 24° |
| 2026-05-06 18:10 | 50.04873 | 8.57086 | 361 ft | 8 kts | 7° |
| 2026-05-06 18:11 | 50.04915 | 8.57062 | 358 ft | 1 kts | 340° |
| 2026-05-06 18:11 | 50.04920 | 8.57073 | 356 ft | 2 kts | 65° |
| 2026-05-06 18:11 | 50.04918 | 8.57084 | 356 ft | 2 kts | 95° |
| 2026-05-06 18:11 | 50.04917 | 8.57089 | 356 ft | 0 kts | 96° |